sensor_id;sensor_type;location;lat;lon;timestamp;temperature;humidity
48019;DHT22;33786;48.690;9.562;2023-06-19T00:00:45;20.80;85.70
48019;DHT22;33786;48.690;9.562;2023-06-19T00:03:12;20.70;86.90
48019;DHT22;33786;48.690;9.562;2023-06-19T00:05:39;20.70;87.10
48019;DHT22;33786;48.690;9.562;2023-06-19T00:08:06;20.70;87.80
48019;DHT22;33786;48.690;9.562;2023-06-19T00:10:33;20.60;87.90
48019;DHT22;33786;48.690;9.562;2023-06-19T00:12:59;20.60;88.60
48019;DHT22;33786;48.690;9.562;2023-06-19T00:15:26;20.60;88.50
48019;DHT22;33786;48.690;9.562;2023-06-19T00:17:58;20.60;88.80
48019;DHT22;33786;48.690;9.562;2023-06-19T00:20:26;20.60;90.00
48019;DHT22;33786;48.690;9.562;2023-06-19T00:22:52;20.60;90.10
48019;DHT22;33786;48.690;9.562;2023-06-19T00:25:19;20.60;90.00
48019;DHT22;33786;48.690;9.562;2023-06-19T00:27:46;20.60;90.10
48019;DHT22;33786;48.690;9.562;2023-06-19T00:30:14;20.60;90.50
48019;DHT22;33786;48.690;9.562;2023-06-19T00:32:41;20.60;90.70
48019;DHT22;33786;48.690;9.562;2023-06-19T00:35:16;20.60;90.80
48019;DHT22;33786;48.690;9.562;2023-06-19T00:37:44;20.60;90.50
48019;DHT22;33786;48.690;9.562;2023-06-19T00:40:24;20.60;90.60
48019;DHT22;33786;48.690;9.562;2023-06-19T00:42:52;20.50;90.90
48019;DHT22;33786;48.690;9.562;2023-06-19T00:45:20;20.60;91.20
48019;DHT22;33786;48.690;9.562;2023-06-19T00:47:46;20.50;90.90
48019;DHT22;33786;48.690;9.562;2023-06-19T00:50:13;20.50;91.20
48019;DHT22;33786;48.690;9.562;2023-06-19T00:52:40;20.50;92.10
48019;DHT22;33786;48.690;9.562;2023-06-19T00:55:07;20.40;92.70
48019;DHT22;33786;48.690;9.562;2023-06-19T00:57:34;20.30;92.80
48019;DHT22;33786;48.690;9.562;2023-06-19T01:00:01;20.30;92.70
48019;DHT22;33786;48.690;9.562;2023-06-19T01:02:30;20.30;93.00
48019;DHT22;33786;48.690;9.562;2023-06-19T01:04:57;20.30;93.40
48019;DHT22;33786;48.690;9.562;2023-06-19T01:07:31;20.20;93.80
48019;DHT22;33786;48.690;9.562;2023-06-19T01:10:02;20.10;94.30
48019;DHT22;33786;48.690;9.562;2023-06-19T01:12:33;20.10;94.50
48019;DHT22;33786;48.690;9.562;2023-06-19T01:15:02;20.10;94.60
48019;DHT22;33786;48.690;9.562;2023-06-19T01:17:29;20.10;94.50
48019;DHT22;33786;48.690;9.562;2023-06-19T01:19:57;20.00;94.40
48019;DHT22;33786;48.690;9.562;2023-06-19T01:24:50;20.10;94.60
48019;DHT22;33786;48.690;9.562;2023-06-19T01:27:17;20.10;94.30
48019;DHT22;33786;48.690;9.562;2023-06-19T01:29:44;20.10;94.40
48019;DHT22;33786;48.690;9.562;2023-06-19T01:32:13;20.10;94.80
48019;DHT22;33786;48.690;9.562;2023-06-19T01:34:41;20.10;94.90
48019;DHT22;33786;48.690;9.562;2023-06-19T01:37:09;20.10;95.20
48019;DHT22;33786;48.690;9.562;2023-06-19T01:39:37;20.10;95.60
48019;DHT22;33786;48.690;9.562;2023-06-19T01:42:04;20.10;95.90
48019;DHT22;33786;48.690;9.562;2023-06-19T01:44:31;20.00;95.60
48019;DHT22;33786;48.690;9.562;2023-06-19T01:46:57;20.10;95.80
48019;DHT22;33786;48.690;9.562;2023-06-19T01:49:24;20.10;96.60
48019;DHT22;33786;48.690;9.562;2023-06-19T01:51:51;20.10;96.70
48019;DHT22;33786;48.690;9.562;2023-06-19T01:54:18;20.00;97.00
48019;DHT22;33786;48.690;9.562;2023-06-19T01:56:44;20.00;97.50
48019;DHT22;33786;48.690;9.562;2023-06-19T01:59:11;19.90;97.50
48019;DHT22;33786;48.690;9.562;2023-06-19T02:01:38;19.90;96.90
48019;DHT22;33786;48.690;9.562;2023-06-19T02:04:05;19.90;96.80
48019;DHT22;33786;48.690;9.562;2023-06-19T02:06:31;20.00;97.50
48019;DHT22;33786;48.690;9.562;2023-06-19T02:08:58;20.00;97.00
48019;DHT22;33786;48.690;9.562;2023-06-19T02:11:25;20.00;97.10
48019;DHT22;33786;48.690;9.562;2023-06-19T02:13:52;20.10;97.40
48019;DHT22;33786;48.690;9.562;2023-06-19T02:16:18;20.00;96.60
48019;DHT22;33786;48.690;9.562;2023-06-19T02:18:45;20.10;95.70
48019;DHT22;33786;48.690;9.562;2023-06-19T02:21:12;20.10;95.10
48019;DHT22;33786;48.690;9.562;2023-06-19T02:23:39;20.20;95.00
48019;DHT22;33786;48.690;9.562;2023-06-19T02:26:05;20.20;94.70
48019;DHT22;33786;48.690;9.562;2023-06-19T02:28:32;20.30;94.40
48019;DHT22;33786;48.690;9.562;2023-06-19T02:31:01;20.30;94.40
48019;DHT22;33786;48.690;9.562;2023-06-19T02:33:27;20.30;94.10
48019;DHT22;33786;48.690;9.562;2023-06-19T02:35:55;20.40;94.10
48019;DHT22;33786;48.690;9.562;2023-06-19T02:38:26;20.40;94.20
48019;DHT22;33786;48.690;9.562;2023-06-19T02:40:53;20.40;94.30
48019;DHT22;33786;48.690;9.562;2023-06-19T02:43:19;20.40;94.40
48019;DHT22;33786;48.690;9.562;2023-06-19T02:45:46;20.40;94.20
48019;DHT22;33786;48.690;9.562;2023-06-19T02:48:13;20.40;94.20
48019;DHT22;33786;48.690;9.562;2023-06-19T02:50:40;20.40;94.40
48019;DHT22;33786;48.690;9.562;2023-06-19T02:53:07;20.30;94.10
48019;DHT22;33786;48.690;9.562;2023-06-19T02:55:34;20.30;94.50
48019;DHT22;33786;48.690;9.562;2023-06-19T02:58:01;20.40;94.10
48019;DHT22;33786;48.690;9.562;2023-06-19T03:00:28;20.40;94.30
48019;DHT22;33786;48.690;9.562;2023-06-19T03:02:55;20.40;94.90
48019;DHT22;33786;48.690;9.562;2023-06-19T03:05:22;20.40;95.00
48019;DHT22;33786;48.690;9.562;2023-06-19T03:07:49;20.30;95.10
48019;DHT22;33786;48.690;9.562;2023-06-19T03:10:15;20.30;95.30
48019;DHT22;33786;48.690;9.562;2023-06-19T03:12:43;20.30;95.70
48019;DHT22;33786;48.690;9.562;2023-06-19T03:15:09;20.30;95.60
48019;DHT22;33786;48.690;9.562;2023-06-19T03:17:37;20.20;95.60
48019;DHT22;33786;48.690;9.562;2023-06-19T03:20:03;20.20;95.80
48019;DHT22;33786;48.690;9.562;2023-06-19T03:22:32;20.10;95.90
48019;DHT22;33786;48.690;9.562;2023-06-19T03:24:59;20.10;96.10
48019;DHT22;33786;48.690;9.562;2023-06-19T03:27:25;20.10;96.20
48019;DHT22;33786;48.690;9.562;2023-06-19T03:29:53;20.20;96.20
48019;DHT22;33786;48.690;9.562;2023-06-19T03:32:20;20.20;96.60
48019;DHT22;33786;48.690;9.562;2023-06-19T03:34:46;20.20;96.70
48019;DHT22;33786;48.690;9.562;2023-06-19T03:37:13;20.20;96.90
48019;DHT22;33786;48.690;9.562;2023-06-19T03:39:40;20.30;97.10
48019;DHT22;33786;48.690;9.562;2023-06-19T03:42:07;20.30;96.50
48019;DHT22;33786;48.690;9.562;2023-06-19T03:44:33;20.30;96.80
48019;DHT22;33786;48.690;9.562;2023-06-19T03:47:00;20.40;96.70
48019;DHT22;33786;48.690;9.562;2023-06-19T03:49:27;20.80;96.00
48019;DHT22;33786;48.690;9.562;2023-06-19T03:51:54;21.30;95.70
48019;DHT22;33786;48.690;9.562;2023-06-19T03:54:21;21.50;94.90
48019;DHT22;33786;48.690;9.562;2023-06-19T03:56:48;21.90;94.40
48019;DHT22;33786;48.690;9.562;2023-06-19T03:59:14;22.40;93.50
48019;DHT22;33786;48.690;9.562;2023-06-19T04:01:41;22.80;92.70
48019;DHT22;33786;48.690;9.562;2023-06-19T04:04:08;22.70;92.60
48019;DHT22;33786;48.690;9.562;2023-06-19T04:06:35;22.50;92.90
48019;DHT22;33786;48.690;9.562;2023-06-19T04:09:01;22.30;93.20
48019;DHT22;33786;48.690;9.562;2023-06-19T04:11:29;22.20;93.30
48019;DHT22;33786;48.690;9.562;2023-06-19T04:13:55;22.00;93.80
48019;DHT22;33786;48.690;9.562;2023-06-19T04:16:22;21.90;94.00
48019;DHT22;33786;48.690;9.562;2023-06-19T04:18:49;21.80;94.00
48019;DHT22;33786;48.690;9.562;2023-06-19T04:21:16;21.80;94.00
48019;DHT22;33786;48.690;9.562;2023-06-19T04:23:42;21.70;93.90
48019;DHT22;33786;48.690;9.562;2023-06-19T04:26:09;21.70;94.00
48019;DHT22;33786;48.690;9.562;2023-06-19T04:28:36;21.80;94.10
48019;DHT22;33786;48.690;9.562;2023-06-19T04:31:03;21.90;94.00
48019;DHT22;33786;48.690;9.562;2023-06-19T04:33:29;22.00;93.90
48019;DHT22;33786;48.690;9.562;2023-06-19T04:35:56;22.10;93.90
48019;DHT22;33786;48.690;9.562;2023-06-19T04:38:24;22.20;93.80
48019;DHT22;33786;48.690;9.562;2023-06-19T04:40:51;22.20;93.40
48019;DHT22;33786;48.690;9.562;2023-06-19T04:43:18;22.20;93.60
48019;DHT22;33786;48.690;9.562;2023-06-19T04:45:44;22.30;93.50
48019;DHT22;33786;48.690;9.562;2023-06-19T04:48:11;22.50;93.20
48019;DHT22;33786;48.690;9.562;2023-06-19T04:50:38;22.60;93.00
48019;DHT22;33786;48.690;9.562;2023-06-19T04:53:05;23.10;92.30
48019;DHT22;33786;48.690;9.562;2023-06-19T04:55:32;24.60;90.50
48019;DHT22;33786;48.690;9.562;2023-06-19T04:57:59;25.70;86.90
48019;DHT22;33786;48.690;9.562;2023-06-19T05:00:26;25.50;85.20
48019;DHT22;33786;48.690;9.562;2023-06-19T05:02:53;25.00;85.90
48019;DHT22;33786;48.690;9.562;2023-06-19T05:05:20;24.60;86.80
48019;DHT22;33786;48.690;9.562;2023-06-19T05:07:50;24.20;88.10
48019;DHT22;33786;48.690;9.562;2023-06-19T05:10:17;24.10;89.50
48019;DHT22;33786;48.690;9.562;2023-06-19T05:12:44;24.00;89.20
48019;DHT22;33786;48.690;9.562;2023-06-19T05:15:11;23.90;89.90
48019;DHT22;33786;48.690;9.562;2023-06-19T05:17:38;23.90;90.20
48019;DHT22;33786;48.690;9.562;2023-06-19T05:20:05;23.70;90.40
48019;DHT22;33786;48.690;9.562;2023-06-19T05:22:35;23.50;90.50
48019;DHT22;33786;48.690;9.562;2023-06-19T05:25:03;23.30;90.70
48019;DHT22;33786;48.690;9.562;2023-06-19T05:27:30;23.30;90.90
48019;DHT22;33786;48.690;9.562;2023-06-19T05:29:57;23.30;90.80
48019;DHT22;33786;48.690;9.562;2023-06-19T05:32:24;23.20;90.80
48019;DHT22;33786;48.690;9.562;2023-06-19T05:34:51;23.20;90.70
48019;DHT22;33786;48.690;9.562;2023-06-19T05:37:18;23.30;90.70
48019;DHT22;33786;48.690;9.562;2023-06-19T05:39:44;23.30;90.80
48019;DHT22;33786;48.690;9.562;2023-06-19T05:42:11;23.20;91.00
48019;DHT22;33786;48.690;9.562;2023-06-19T05:44:38;23.30;91.10
48019;DHT22;33786;48.690;9.562;2023-06-19T05:47:06;23.30;90.90
48019;DHT22;33786;48.690;9.562;2023-06-19T05:49:33;23.30;91.30
48019;DHT22;33786;48.690;9.562;2023-06-19T05:52:00;23.40;91.40
48019;DHT22;33786;48.690;9.562;2023-06-19T05:54:27;23.20;91.00
48019;DHT22;33786;48.690;9.562;2023-06-19T05:56:54;23.30;91.00
48019;DHT22;33786;48.690;9.562;2023-06-19T05:59:21;23.20;91.30
48019;DHT22;33786;48.690;9.562;2023-06-19T06:01:48;23.40;91.00
48019;DHT22;33786;48.690;9.562;2023-06-19T06:04:17;23.60;90.90
48019;DHT22;33786;48.690;9.562;2023-06-19T06:06:45;23.80;91.10
48019;DHT22;33786;48.690;9.562;2023-06-19T06:09:12;24.00;90.60
48019;DHT22;33786;48.690;9.562;2023-06-19T06:11:39;24.20;90.20
48019;DHT22;33786;48.690;9.562;2023-06-19T06:14:06;24.10;89.80
48019;DHT22;33786;48.690;9.562;2023-06-19T06:16:33;24.20;90.10
48019;DHT22;33786;48.690;9.562;2023-06-19T06:19:00;24.30;90.00
48019;DHT22;33786;48.690;9.562;2023-06-19T06:21:27;24.50;89.70
48019;DHT22;33786;48.690;9.562;2023-06-19T06:23:53;24.40;89.80
48019;DHT22;33786;48.690;9.562;2023-06-19T06:26:21;24.60;90.10
48019;DHT22;33786;48.690;9.562;2023-06-19T06:28:48;24.90;88.50
48019;DHT22;33786;48.690;9.562;2023-06-19T06:31:14;25.40;87.60
48019;DHT22;33786;48.690;9.562;2023-06-19T06:33:41;26.00;86.20
48019;DHT22;33786;48.690;9.562;2023-06-19T06:36:08;26.90;85.20
48019;DHT22;33786;48.690;9.562;2023-06-19T06:38:35;28.70;81.40
48019;DHT22;33786;48.690;9.562;2023-06-19T06:41:02;31.00;75.40
48019;DHT22;33786;48.690;9.562;2023-06-19T06:43:29;31.10;72.90
48019;DHT22;33786;48.690;9.562;2023-06-19T06:45:55;30.50;73.70
48019;DHT22;33786;48.690;9.562;2023-06-19T06:48:22;29.90;74.10
48019;DHT22;33786;48.690;9.562;2023-06-19T06:50:49;29.90;74.70
48019;DHT22;33786;48.690;9.562;2023-06-19T06:53:16;29.50;73.50
48019;DHT22;33786;48.690;9.562;2023-06-19T06:55:43;28.90;75.30
48019;DHT22;33786;48.690;9.562;2023-06-19T06:58:09;28.40;75.90
48019;DHT22;33786;48.690;9.562;2023-06-19T07:00:36;28.20;77.00
48019;DHT22;33786;48.690;9.562;2023-06-19T07:03:03;28.10;77.30
48019;DHT22;33786;48.690;9.562;2023-06-19T07:05:30;28.00;77.60
48019;DHT22;33786;48.690;9.562;2023-06-19T07:07:57;28.30;77.00
48019;DHT22;33786;48.690;9.562;2023-06-19T07:10:24;29.50;75.20
48019;DHT22;33786;48.690;9.562;2023-06-19T07:12:52;31.50;71.70
48019;DHT22;33786;48.690;9.562;2023-06-19T07:15:18;32.80;68.80
48019;DHT22;33786;48.690;9.562;2023-06-19T07:17:45;34.40;66.50
48019;DHT22;33786;48.690;9.562;2023-06-19T07:20:13;35.80;63.40
48019;DHT22;33786;48.690;9.562;2023-06-19T07:22:40;36.30;62.00
48019;DHT22;33786;48.690;9.562;2023-06-19T07:25:07;36.10;61.50
48019;DHT22;33786;48.690;9.562;2023-06-19T07:27:34;35.20;61.90
48019;DHT22;33786;48.690;9.562;2023-06-19T07:30:01;36.50;60.90
48019;DHT22;33786;48.690;9.562;2023-06-19T07:32:27;36.40;59.70
48019;DHT22;33786;48.690;9.562;2023-06-19T07:34:54;35.80;61.30
48019;DHT22;33786;48.690;9.562;2023-06-19T07:37:21;34.60;63.10
48019;DHT22;33786;48.690;9.562;2023-06-19T07:39:49;33.30;63.80
48019;DHT22;33786;48.690;9.562;2023-06-19T07:42:19;32.50;65.60
48019;DHT22;33786;48.690;9.562;2023-06-19T07:44:46;31.80;67.20
48019;DHT22;33786;48.690;9.562;2023-06-19T07:47:13;31.40;68.60
48019;DHT22;33786;48.690;9.562;2023-06-19T07:49:40;31.20;68.10
48019;DHT22;33786;48.690;9.562;2023-06-19T07:52:07;31.20;69.10
48019;DHT22;33786;48.690;9.562;2023-06-19T07:54:36;32.90;67.10
48019;DHT22;33786;48.690;9.562;2023-06-19T07:57:03;35.00;64.10
48019;DHT22;33786;48.690;9.562;2023-06-19T07:59:30;35.90;59.80
48019;DHT22;33786;48.690;9.562;2023-06-19T08:01:56;35.80;61.00
48019;DHT22;33786;48.690;9.562;2023-06-19T08:04:23;35.40;61.10
48019;DHT22;33786;48.690;9.562;2023-06-19T08:06:50;35.90;60.20
48019;DHT22;33786;48.690;9.562;2023-06-19T08:09:17;36.20;59.60
48019;DHT22;33786;48.690;9.562;2023-06-19T08:11:43;36.50;59.90
48019;DHT22;33786;48.690;9.562;2023-06-19T08:14:10;37.00;59.50
48019;DHT22;33786;48.690;9.562;2023-06-19T08:16:37;35.60;60.10
48019;DHT22;33786;48.690;9.562;2023-06-19T08:19:03;34.60;61.00
48019;DHT22;33786;48.690;9.562;2023-06-19T08:21:30;33.60;63.50
48019;DHT22;33786;48.690;9.562;2023-06-19T08:23:57;33.40;63.80
48019;DHT22;33786;48.690;9.562;2023-06-19T08:26:25;32.80;64.90
48019;DHT22;33786;48.690;9.562;2023-06-19T08:28:51;32.10;65.80
48019;DHT22;33786;48.690;9.562;2023-06-19T08:31:18;31.50;67.40
48019;DHT22;33786;48.690;9.562;2023-06-19T08:33:46;31.50;67.00
48019;DHT22;33786;48.690;9.562;2023-06-19T08:36:16;31.80;67.30
48019;DHT22;33786;48.690;9.562;2023-06-19T08:38:43;31.90;66.60
48019;DHT22;33786;48.690;9.562;2023-06-19T08:41:10;32.00;67.20
48019;DHT22;33786;48.690;9.562;2023-06-19T08:43:37;32.20;66.70
48019;DHT22;33786;48.690;9.562;2023-06-19T08:46:10;32.40;65.80
48019;DHT22;33786;48.690;9.562;2023-06-19T08:48:38;32.60;65.30
48019;DHT22;33786;48.690;9.562;2023-06-19T08:51:05;32.30;65.40
48019;DHT22;33786;48.690;9.562;2023-06-19T08:53:36;32.50;66.10
48019;DHT22;33786;48.690;9.562;2023-06-19T08:56:03;32.50;66.10
48019;DHT22;33786;48.690;9.562;2023-06-19T08:58:30;32.40;66.60
48019;DHT22;33786;48.690;9.562;2023-06-19T09:01:00;32.70;66.40
48019;DHT22;33786;48.690;9.562;2023-06-19T09:03:27;32.80;64.30
48019;DHT22;33786;48.690;9.562;2023-06-19T09:05:53;33.00;64.50
48019;DHT22;33786;48.690;9.562;2023-06-19T09:08:21;32.70;64.90
48019;DHT22;33786;48.690;9.562;2023-06-19T09:11:01;32.70;64.90
48019;DHT22;33786;48.690;9.562;2023-06-19T09:13:28;32.60;64.50
48019;DHT22;33786;48.690;9.562;2023-06-19T09:18:28;32.40;63.00
48019;DHT22;33786;48.690;9.562;2023-06-19T09:20:55;32.30;62.30
48019;DHT22;33786;48.690;9.562;2023-06-19T09:23:23;32.30;62.30
48019;DHT22;33786;48.690;9.562;2023-06-19T09:25:51;32.00;61.90
48019;DHT22;33786;48.690;9.562;2023-06-19T09:30:54;31.30;62.70
48019;DHT22;33786;48.690;9.562;2023-06-19T09:33:21;31.20;63.30
48019;DHT22;33786;48.690;9.562;2023-06-19T09:35:49;31.20;64.20
48019;DHT22;33786;48.690;9.562;2023-06-19T09:38:16;31.20;63.80
48019;DHT22;33786;48.690;9.562;2023-06-19T09:40:47;30.90;64.10
48019;DHT22;33786;48.690;9.562;2023-06-19T09:43:23;30.40;65.40
48019;DHT22;33786;48.690;9.562;2023-06-19T09:45:50;30.60;65.70
48019;DHT22;33786;48.690;9.562;2023-06-19T09:48:22;30.80;65.50
48019;DHT22;33786;48.690;9.562;2023-06-19T09:50:53;31.20;65.50
48019;DHT22;33786;48.690;9.562;2023-06-19T09:53:20;31.50;63.90
48019;DHT22;33786;48.690;9.562;2023-06-19T09:55:49;32.10;64.20
48019;DHT22;33786;48.690;9.562;2023-06-19T09:58:19;32.70;62.80
48019;DHT22;33786;48.690;9.562;2023-06-19T10:00:47;32.70;63.70
48019;DHT22;33786;48.690;9.562;2023-06-19T10:03:16;32.70;62.40
48019;DHT22;33786;48.690;9.562;2023-06-19T10:05:43;32.60;62.40
48019;DHT22;33786;48.690;9.562;2023-06-19T10:08:10;32.70;62.90
48019;DHT22;33786;48.690;9.562;2023-06-19T10:10:45;32.90;63.10
48019;DHT22;33786;48.690;9.562;2023-06-19T10:13:15;32.70;62.90
48019;DHT22;33786;48.690;9.562;2023-06-19T10:15:43;32.40;64.30
48019;DHT22;33786;48.690;9.562;2023-06-19T10:18:14;32.40;62.00
48019;DHT22;33786;48.690;9.562;2023-06-19T10:20:45;32.10;62.30
48019;DHT22;33786;48.690;9.562;2023-06-19T10:23:15;32.30;62.40
48019;DHT22;33786;48.690;9.562;2023-06-19T10:25:47;32.80;61.60
48019;DHT22;33786;48.690;9.562;2023-06-19T10:28:27;32.70;62.40
48019;DHT22;33786;48.690;9.562;2023-06-19T10:30:57;32.50;61.40
48019;DHT22;33786;48.690;9.562;2023-06-19T10:33:25;32.60;62.30
48019;DHT22;33786;48.690;9.562;2023-06-19T10:35:52;32.60;62.30
48019;DHT22;33786;48.690;9.562;2023-06-19T10:38:19;32.60;62.60
48019;DHT22;33786;48.690;9.562;2023-06-19T10:40:46;32.50;62.90
48019;DHT22;33786;48.690;9.562;2023-06-19T10:43:19;32.90;63.40
48019;DHT22;33786;48.690;9.562;2023-06-19T10:45:45;33.20;63.00
48019;DHT22;33786;48.690;9.562;2023-06-19T10:48:17;33.00;63.10
48019;DHT22;33786;48.690;9.562;2023-06-19T10:50:44;33.60;61.70
48019;DHT22;33786;48.690;9.562;2023-06-19T10:53:11;34.00;62.10
48019;DHT22;33786;48.690;9.562;2023-06-19T10:55:38;33.90;60.90
48019;DHT22;33786;48.690;9.562;2023-06-19T10:58:05;33.40;61.70
48019;DHT22;33786;48.690;9.562;2023-06-19T11:00:32;33.90;62.30
48019;DHT22;33786;48.690;9.562;2023-06-19T11:02:59;34.20;62.70
48019;DHT22;33786;48.690;9.562;2023-06-19T11:05:27;34.30;61.20
48019;DHT22;33786;48.690;9.562;2023-06-19T11:07:55;34.20;60.30
48019;DHT22;33786;48.690;9.562;2023-06-19T11:10:24;34.20;59.80
48019;DHT22;33786;48.690;9.562;2023-06-19T11:12:54;33.70;60.80
48019;DHT22;33786;48.690;9.562;2023-06-19T11:15:31;33.10;59.70
48019;DHT22;33786;48.690;9.562;2023-06-19T11:17:59;33.10;60.20
48019;DHT22;33786;48.690;9.562;2023-06-19T11:20:26;33.20;59.00
48019;DHT22;33786;48.690;9.562;2023-06-19T11:22:57;33.60;59.80
48019;DHT22;33786;48.690;9.562;2023-06-19T11:25:34;33.10;59.20
48019;DHT22;33786;48.690;9.562;2023-06-19T11:28:01;33.10;60.80
48019;DHT22;33786;48.690;9.562;2023-06-19T11:30:31;33.00;59.40
48019;DHT22;33786;48.690;9.562;2023-06-19T11:32:59;32.70;60.60
48019;DHT22;33786;48.690;9.562;2023-06-19T11:35:32;32.30;60.10
48019;DHT22;33786;48.690;9.562;2023-06-19T11:38:00;32.40;61.10
48019;DHT22;33786;48.690;9.562;2023-06-19T11:40:27;32.40;60.20
48019;DHT22;33786;48.690;9.562;2023-06-19T11:42:55;32.60;61.90
48019;DHT22;33786;48.690;9.562;2023-06-19T11:45:22;32.30;60.70
48019;DHT22;33786;48.690;9.562;2023-06-19T11:47:49;32.30;59.20
48019;DHT22;33786;48.690;9.562;2023-06-19T11:50:16;32.20;61.20
48019;DHT22;33786;48.690;9.562;2023-06-19T11:52:43;32.20;60.30
48019;DHT22;33786;48.690;9.562;2023-06-19T11:55:13;32.00;60.00
48019;DHT22;33786;48.690;9.562;2023-06-19T11:57:42;32.00;59.00
48019;DHT22;33786;48.690;9.562;2023-06-19T12:00:13;31.90;60.40
48019;DHT22;33786;48.690;9.562;2023-06-19T12:02:41;32.30;60.00
48019;DHT22;33786;48.690;9.562;2023-06-19T12:05:08;32.30;61.90
48019;DHT22;33786;48.690;9.562;2023-06-19T12:07:35;32.10;60.40
48019;DHT22;33786;48.690;9.562;2023-06-19T12:10:02;32.40;61.10
48019;DHT22;33786;48.690;9.562;2023-06-19T12:12:30;32.50;61.20
48019;DHT22;33786;48.690;9.562;2023-06-19T12:14:57;32.40;59.90
48019;DHT22;33786;48.690;9.562;2023-06-19T12:17:24;32.60;59.30
48019;DHT22;33786;48.690;9.562;2023-06-19T12:19:51;32.90;60.70
48019;DHT22;33786;48.690;9.562;2023-06-19T12:22:18;32.70;60.20
48019;DHT22;33786;48.690;9.562;2023-06-19T12:24:45;32.80;60.80
48019;DHT22;33786;48.690;9.562;2023-06-19T12:27:11;33.00;59.30
48019;DHT22;33786;48.690;9.562;2023-06-19T12:29:38;33.20;59.50
48019;DHT22;33786;48.690;9.562;2023-06-19T12:32:05;33.50;59.80
48019;DHT22;33786;48.690;9.562;2023-06-19T12:34:32;33.40;59.10
48019;DHT22;33786;48.690;9.562;2023-06-19T12:36:58;33.20;59.10
48019;DHT22;33786;48.690;9.562;2023-06-19T12:39:25;33.00;58.70
48019;DHT22;33786;48.690;9.562;2023-06-19T12:41:53;32.80;59.60
48019;DHT22;33786;48.690;9.562;2023-06-19T12:44:21;32.50;60.70
48019;DHT22;33786;48.690;9.562;2023-06-19T12:46:47;32.60;60.70
48019;DHT22;33786;48.690;9.562;2023-06-19T12:49:14;32.90;58.70
48019;DHT22;33786;48.690;9.562;2023-06-19T12:51:41;32.90;59.00
48019;DHT22;33786;48.690;9.562;2023-06-19T12:54:08;32.70;58.40
48019;DHT22;33786;48.690;9.562;2023-06-19T12:56:35;33.00;60.00
48019;DHT22;33786;48.690;9.562;2023-06-19T12:59:01;33.40;58.40
48019;DHT22;33786;48.690;9.562;2023-06-19T13:01:28;33.40;57.20
48019;DHT22;33786;48.690;9.562;2023-06-19T13:03:55;33.60;58.90
48019;DHT22;33786;48.690;9.562;2023-06-19T13:06:22;33.20;58.50
48019;DHT22;33786;48.690;9.562;2023-06-19T13:08:49;33.40;58.50
48019;DHT22;33786;48.690;9.562;2023-06-19T13:11:15;33.70;58.10
48019;DHT22;33786;48.690;9.562;2023-06-19T13:13:43;34.10;58.20
48019;DHT22;33786;48.690;9.562;2023-06-19T13:16:09;34.40;58.30
48019;DHT22;33786;48.690;9.562;2023-06-19T13:18:40;34.50;57.80
48019;DHT22;33786;48.690;9.562;2023-06-19T13:21:07;34.20;57.50
48019;DHT22;33786;48.690;9.562;2023-06-19T13:23:34;34.20;58.20
48019;DHT22;33786;48.690;9.562;2023-06-19T13:26:01;34.20;58.00
48019;DHT22;33786;48.690;9.562;2023-06-19T13:28:28;34.00;57.40
48019;DHT22;33786;48.690;9.562;2023-06-19T13:30:54;34.00;59.10
48019;DHT22;33786;48.690;9.562;2023-06-19T13:33:21;33.80;58.60
48019;DHT22;33786;48.690;9.562;2023-06-19T13:35:48;33.90;58.20
48019;DHT22;33786;48.690;9.562;2023-06-19T13:38:15;33.80;57.80
48019;DHT22;33786;48.690;9.562;2023-06-19T13:40:42;33.90;58.10
48019;DHT22;33786;48.690;9.562;2023-06-19T13:43:10;34.10;58.20
48019;DHT22;33786;48.690;9.562;2023-06-19T13:45:37;33.50;57.60
48019;DHT22;33786;48.690;9.562;2023-06-19T13:48:05;33.50;58.00
48019;DHT22;33786;48.690;9.562;2023-06-19T13:50:32;33.90;58.10
48019;DHT22;33786;48.690;9.562;2023-06-19T13:53:00;34.00;58.40
48019;DHT22;33786;48.690;9.562;2023-06-19T13:58:20;34.00;57.00
48019;DHT22;33786;48.690;9.562;2023-06-19T14:00:47;33.60;57.90
48019;DHT22;33786;48.690;9.562;2023-06-19T14:03:14;33.60;57.00
48019;DHT22;33786;48.690;9.562;2023-06-19T14:05:41;33.40;57.10
48019;DHT22;33786;48.690;9.562;2023-06-19T14:08:08;33.50;57.40
48019;DHT22;33786;48.690;9.562;2023-06-19T14:10:35;33.70;57.90
48019;DHT22;33786;48.690;9.562;2023-06-19T14:13:02;33.80;57.60
48019;DHT22;33786;48.690;9.562;2023-06-19T14:15:29;34.00;57.40
48019;DHT22;33786;48.690;9.562;2023-06-19T14:17:56;33.90;57.60
48019;DHT22;33786;48.690;9.562;2023-06-19T14:20:22;33.50;57.20
48019;DHT22;33786;48.690;9.562;2023-06-19T14:22:50;33.40;57.50
48019;DHT22;33786;48.690;9.562;2023-06-19T14:25:16;33.50;57.30
48019;DHT22;33786;48.690;9.562;2023-06-19T14:27:43;33.40;57.80
48019;DHT22;33786;48.690;9.562;2023-06-19T14:30:10;33.50;57.80
48019;DHT22;33786;48.690;9.562;2023-06-19T14:32:37;33.40;58.00
48019;DHT22;33786;48.690;9.562;2023-06-19T14:35:04;33.60;59.00
48019;DHT22;33786;48.690;9.562;2023-06-19T14:37:31;33.50;57.50
48019;DHT22;33786;48.690;9.562;2023-06-19T14:39:58;33.60;57.60
48019;DHT22;33786;48.690;9.562;2023-06-19T14:42:25;33.50;58.20
48019;DHT22;33786;48.690;9.562;2023-06-19T14:44:52;33.50;58.00
48019;DHT22;33786;48.690;9.562;2023-06-19T14:47:19;33.50;58.20
48019;DHT22;33786;48.690;9.562;2023-06-19T14:49:45;33.40;57.70
48019;DHT22;33786;48.690;9.562;2023-06-19T14:52:12;33.10;57.70
48019;DHT22;33786;48.690;9.562;2023-06-19T14:54:39;33.20;57.70
48019;DHT22;33786;48.690;9.562;2023-06-19T14:57:06;33.20;57.50
48019;DHT22;33786;48.690;9.562;2023-06-19T14:59:33;33.20;58.00
48019;DHT22;33786;48.690;9.562;2023-06-19T15:01:59;33.10;57.70
48019;DHT22;33786;48.690;9.562;2023-06-19T15:04:26;33.10;58.00
48019;DHT22;33786;48.690;9.562;2023-06-19T15:06:53;33.00;58.70
48019;DHT22;33786;48.690;9.562;2023-06-19T15:09:20;33.00;58.30
48019;DHT22;33786;48.690;9.562;2023-06-19T15:11:47;33.20;58.80
48019;DHT22;33786;48.690;9.562;2023-06-19T15:14:13;33.30;58.50
48019;DHT22;33786;48.690;9.562;2023-06-19T15:16:40;33.20;58.20
48019;DHT22;33786;48.690;9.562;2023-06-19T15:19:07;33.40;58.30
48019;DHT22;33786;48.690;9.562;2023-06-19T15:21:33;33.40;57.60
48019;DHT22;33786;48.690;9.562;2023-06-19T15:24:00;33.40;57.80
48019;DHT22;33786;48.690;9.562;2023-06-19T15:26:27;33.40;58.10
48019;DHT22;33786;48.690;9.562;2023-06-19T15:28:54;33.20;58.10
48019;DHT22;33786;48.690;9.562;2023-06-19T15:31:21;33.00;57.70
48019;DHT22;33786;48.690;9.562;2023-06-19T15:33:49;33.10;57.60
48019;DHT22;33786;48.690;9.562;2023-06-19T15:36:16;33.00;58.60
48019;DHT22;33786;48.690;9.562;2023-06-19T15:38:43;32.80;57.60
48019;DHT22;33786;48.690;9.562;2023-06-19T15:41:10;32.90;58.60